sensor_id;sensor_type;location;lat;lon;timestamp;P1;durP1;ratioP1;P2;durP2;ratioP2
38629;SDS011;24384;51.988;4.644;2022-10-14T00:01:32;23.55;;;15.63;;
38629;SDS011;24384;51.988;4.644;2022-10-14T00:03:58;23.05;;;16.10;;
38629;SDS011;24384;51.988;4.644;2022-10-14T00:06:28;24.88;;;16.15;;
38629;SDS011;24384;51.988;4.644;2022-10-14T00:08:58;26.83;;;18.20;;
38629;SDS011;24384;51.988;4.644;2022-10-14T00:11:26;26.55;;;16.98;;
38629;SDS011;24384;51.988;4.644;2022-10-14T00:13:54;25.48;;;17.38;;
38629;SDS011;24384;51.988;4.644;2022-10-14T00:16:32;30.98;;;18.77;;
38629;SDS011;24384;51.988;4.644;2022-10-14T00:18:59;28.98;;;18.20;;
38629;SDS011;24384;51.988;4.644;2022-10-14T00:21:26;31.35;;;18.23;;
38629;SDS011;24384;51.988;4.644;2022-10-14T00:23:52;27.48;;;17.42;;
38629;SDS011;24384;51.988;4.644;2022-10-14T00:26:19;25.00;;;17.70;;
38629;SDS011;24384;51.988;4.644;2022-10-14T00:28:46;27.77;;;19.00;;
38629;SDS011;24384;51.988;4.644;2022-10-14T00:31:12;36.03;;;22.58;;
38629;SDS011;24384;51.988;4.644;2022-10-14T00:33:38;37.47;;;23.90;;
38629;SDS011;24384;51.988;4.644;2022-10-14T00:36:04;39.42;;;23.60;;
38629;SDS011;24384;51.988;4.644;2022-10-14T00:38:30;37.47;;;24.63;;
38629;SDS011;24384;51.988;4.644;2022-10-14T00:40:56;41.20;;;25.15;;
38629;SDS011;24384;51.988;4.644;2022-10-14T00:43:22;41.90;;;26.27;;
38629;SDS011;24384;51.988;4.644;2022-10-14T00:45:49;42.95;;;26.50;;
38629;SDS011;24384;51.988;4.644;2022-10-14T00:48:15;36.67;;;24.88;;
38629;SDS011;24384;51.988;4.644;2022-10-14T00:50:43;38.83;;;25.15;;
38629;SDS011;24384;51.988;4.644;2022-10-14T00:53:11;38.67;;;25.52;;
38629;SDS011;24384;51.988;4.644;2022-10-14T00:55:38;41.35;;;26.50;;
38629;SDS011;24384;51.988;4.644;2022-10-14T00:58:04;41.17;;;26.55;;
38629;SDS011;24384;51.988;4.644;2022-10-14T01:00:30;42.17;;;28.13;;
38629;SDS011;24384;51.988;4.644;2022-10-14T01:02:56;43.25;;;28.27;;
38629;SDS011;24384;51.988;4.644;2022-10-14T01:05:22;43.15;;;28.95;;
38629;SDS011;24384;51.988;4.644;2022-10-14T01:08:14;46.33;;;29.95;;
38629;SDS011;24384;51.988;4.644;2022-10-14T01:13:33;53.90;;;33.45;;
38629;SDS011;24384;51.988;4.644;2022-10-14T01:16:15;50.60;;;32.35;;
38629;SDS011;24384;51.988;4.644;2022-10-14T01:18:55;54.15;;;34.33;;
38629;SDS011;24384;51.988;4.644;2022-10-14T01:21:41;50.30;;;33.10;;
38629;SDS011;24384;51.988;4.644;2022-10-14T01:32:47;49.72;;;33.42;;
38629;SDS011;24384;51.988;4.644;2022-10-14T01:38:49;46.05;;;30.88;;
38629;SDS011;24384;51.988;4.644;2022-10-14T01:43:46;51.30;;;29.77;;
38629;SDS011;24384;51.988;4.644;2022-10-14T01:46:14;43.40;;;29.92;;
38629;SDS011;24384;51.988;4.644;2022-10-14T01:48:44;46.63;;;30.50;;
38629;SDS011;24384;51.988;4.644;2022-10-14T01:51:14;46.75;;;31.02;;
38629;SDS011;24384;51.988;4.644;2022-10-14T01:53:55;47.33;;;31.60;;
38629;SDS011;24384;51.988;4.644;2022-10-14T01:56:29;47.35;;;30.70;;
38629;SDS011;24384;51.988;4.644;2022-10-14T01:58:57;49.83;;;31.42;;
38629;SDS011;24384;51.988;4.644;2022-10-14T02:01:24;51.92;;;32.60;;
38629;SDS011;24384;51.988;4.644;2022-10-14T02:03:50;58.95;;;32.78;;
38629;SDS011;24384;51.988;4.644;2022-10-14T02:06:18;60.13;;;34.70;;
38629;SDS011;24384;51.988;4.644;2022-10-14T02:11:40;61.85;;;34.38;;
38629;SDS011;24384;51.988;4.644;2022-10-14T02:14:46;59.63;;;33.53;;
38629;SDS011;24384;51.988;4.644;2022-10-14T02:17:18;72.00;;;34.80;;
38629;SDS011;24384;51.988;4.644;2022-10-14T02:20:03;64.57;;;35.42;;
38629;SDS011;24384;51.988;4.644;2022-10-14T02:22:54;59.33;;;34.90;;
38629;SDS011;24384;51.988;4.644;2022-10-14T02:25:25;65.55;;;37.17;;
38629;SDS011;24384;51.988;4.644;2022-10-14T02:27:54;68.45;;;36.58;;
38629;SDS011;24384;51.988;4.644;2022-10-14T02:30:21;75.93;;;37.90;;
38629;SDS011;24384;51.988;4.644;2022-10-14T02:32:47;84.78;;;39.05;;
38629;SDS011;24384;51.988;4.644;2022-10-14T02:35:15;76.35;;;39.22;;
38629;SDS011;24384;51.988;4.644;2022-10-14T02:37:44;95.22;;;41.17;;
38629;SDS011;24384;51.988;4.644;2022-10-14T02:40:17;91.95;;;41.50;;
38629;SDS011;24384;51.988;4.644;2022-10-14T02:42:47;90.38;;;41.70;;
38629;SDS011;24384;51.988;4.644;2022-10-14T02:45:13;95.57;;;43.55;;
38629;SDS011;24384;51.988;4.644;2022-10-14T02:47:39;96.35;;;43.75;;
38629;SDS011;24384;51.988;4.644;2022-10-14T02:50:05;107.00;;;43.53;;
38629;SDS011;24384;51.988;4.644;2022-10-14T02:52:31;108.85;;;43.97;;
38629;SDS011;24384;51.988;4.644;2022-10-14T02:54:57;103.28;;;45.22;;
38629;SDS011;24384;51.988;4.644;2022-10-14T02:57:22;107.53;;;45.70;;
38629;SDS011;24384;51.988;4.644;2022-10-14T02:59:48;109.75;;;46.78;;
38629;SDS011;24384;51.988;4.644;2022-10-14T03:02:13;108.35;;;46.05;;
38629;SDS011;24384;51.988;4.644;2022-10-14T03:04:38;97.93;;;44.90;;
38629;SDS011;24384;51.988;4.644;2022-10-14T03:07:04;112.72;;;46.53;;
38629;SDS011;24384;51.988;4.644;2022-10-14T03:09:29;120.00;;;46.25;;
38629;SDS011;24384;51.988;4.644;2022-10-14T03:11:55;111.72;;;46.08;;
38629;SDS011;24384;51.988;4.644;2022-10-14T03:14:20;120.43;;;46.90;;
38629;SDS011;24384;51.988;4.644;2022-10-14T03:16:46;121.53;;;47.70;;
38629;SDS011;24384;51.988;4.644;2022-10-14T03:19:11;125.50;;;48.13;;
38629;SDS011;24384;51.988;4.644;2022-10-14T03:21:36;124.28;;;48.42;;
38629;SDS011;24384;51.988;4.644;2022-10-14T03:24:02;125.65;;;48.22;;
38629;SDS011;24384;51.988;4.644;2022-10-14T03:26:27;121.90;;;47.25;;
38629;SDS011;24384;51.988;4.644;2022-10-14T03:28:53;121.75;;;46.67;;
38629;SDS011;24384;51.988;4.644;2022-10-14T03:31:18;119.95;;;47.45;;
38629;SDS011;24384;51.988;4.644;2022-10-14T03:33:44;114.88;;;46.80;;
38629;SDS011;24384;51.988;4.644;2022-10-14T03:36:09;124.47;;;48.25;;
38629;SDS011;24384;51.988;4.644;2022-10-14T03:38:36;120.63;;;47.20;;
38629;SDS011;24384;51.988;4.644;2022-10-14T03:41:01;121.30;;;47.20;;
38629;SDS011;24384;51.988;4.644;2022-10-14T03:43:27;134.45;;;48.45;;
38629;SDS011;24384;51.988;4.644;2022-10-14T03:45:52;110.47;;;46.97;;
38629;SDS011;24384;51.988;4.644;2022-10-14T03:48:18;131.30;;;49.67;;
38629;SDS011;24384;51.988;4.644;2022-10-14T03:50:45;125.40;;;47.10;;
38629;SDS011;24384;51.988;4.644;2022-10-14T03:53:11;126.88;;;46.50;;
38629;SDS011;24384;51.988;4.644;2022-10-14T03:55:37;131.18;;;47.42;;
38629;SDS011;24384;51.988;4.644;2022-10-14T03:58:02;150.98;;;49.47;;
38629;SDS011;24384;51.988;4.644;2022-10-14T04:00:28;152.57;;;49.58;;
38629;SDS011;24384;51.988;4.644;2022-10-14T04:02:53;150.77;;;50.33;;
38629;SDS011;24384;51.988;4.644;2022-10-14T04:05:19;164.38;;;49.53;;
38629;SDS011;24384;51.988;4.644;2022-10-14T04:07:44;152.48;;;48.60;;
38629;SDS011;24384;51.988;4.644;2022-10-14T04:10:09;167.38;;;51.10;;
38629;SDS011;24384;51.988;4.644;2022-10-14T04:12:35;161.95;;;49.78;;
38629;SDS011;24384;51.988;4.644;2022-10-14T04:15:00;157.95;;;48.95;;
38629;SDS011;24384;51.988;4.644;2022-10-14T04:17:26;149.95;;;49.17;;
38629;SDS011;24384;51.988;4.644;2022-10-14T04:19:51;151.15;;;46.30;;
38629;SDS011;24384;51.988;4.644;2022-10-14T04:22:17;163.52;;;48.67;;
38629;SDS011;24384;51.988;4.644;2022-10-14T04:24:43;164.20;;;47.92;;
38629;SDS011;24384;51.988;4.644;2022-10-14T04:27:09;150.40;;;48.15;;
38629;SDS011;24384;51.988;4.644;2022-10-14T04:29:35;157.90;;;48.33;;
38629;SDS011;24384;51.988;4.644;2022-10-14T04:32:00;154.18;;;47.22;;
38629;SDS011;24384;51.988;4.644;2022-10-14T04:34:26;152.60;;;45.30;;
38629;SDS011;24384;51.988;4.644;2022-10-14T04:36:51;149.48;;;47.97;;
38629;SDS011;24384;51.988;4.644;2022-10-14T04:39:17;160.63;;;46.33;;
38629;SDS011;24384;51.988;4.644;2022-10-14T04:41:43;137.85;;;42.72;;
38629;SDS011;24384;51.988;4.644;2022-10-14T04:44:08;129.23;;;43.28;;
38629;SDS011;24384;51.988;4.644;2022-10-14T04:46:34;127.90;;;43.35;;
38629;SDS011;24384;51.988;4.644;2022-10-14T04:48:59;114.75;;;41.58;;
38629;SDS011;24384;51.988;4.644;2022-10-14T04:51:25;116.82;;;41.58;;
38629;SDS011;24384;51.988;4.644;2022-10-14T04:53:50;121.55;;;41.28;;
38629;SDS011;24384;51.988;4.644;2022-10-14T04:56:16;105.10;;;39.72;;
38629;SDS011;24384;51.988;4.644;2022-10-14T04:58:41;119.28;;;39.95;;
38629;SDS011;24384;51.988;4.644;2022-10-14T05:01:06;94.32;;;36.88;;
38629;SDS011;24384;51.988;4.644;2022-10-14T05:03:32;97.35;;;35.58;;
38629;SDS011;24384;51.988;4.644;2022-10-14T05:05:57;81.32;;;32.95;;
38629;SDS011;24384;51.988;4.644;2022-10-14T05:08:23;87.70;;;32.97;;
38629;SDS011;24384;51.988;4.644;2022-10-14T05:10:48;79.47;;;31.80;;
38629;SDS011;24384;51.988;4.644;2022-10-14T05:13:14;74.70;;;32.35;;
38629;SDS011;24384;51.988;4.644;2022-10-14T05:15:40;70.95;;;32.15;;
38629;SDS011;24384;51.988;4.644;2022-10-14T05:18:06;72.25;;;30.65;;
38629;SDS011;24384;51.988;4.644;2022-10-14T05:20:31;71.38;;;31.15;;
38629;SDS011;24384;51.988;4.644;2022-10-14T05:22:56;62.28;;;28.20;;
38629;SDS011;24384;51.988;4.644;2022-10-14T05:25:22;60.47;;;27.48;;
38629;SDS011;24384;51.988;4.644;2022-10-14T05:27:47;59.00;;;26.45;;
38629;SDS011;24384;51.988;4.644;2022-10-14T05:30:13;58.80;;;27.60;;
38629;SDS011;24384;51.988;4.644;2022-10-14T05:32:38;56.85;;;27.35;;
38629;SDS011;24384;51.988;4.644;2022-10-14T05:35:04;64.22;;;27.55;;
38629;SDS011;24384;51.988;4.644;2022-10-14T05:37:29;63.47;;;28.77;;
38629;SDS011;24384;51.988;4.644;2022-10-14T05:39:55;54.10;;;26.77;;
38629;SDS011;24384;51.988;4.644;2022-10-14T05:42:20;51.53;;;25.52;;
38629;SDS011;24384;51.988;4.644;2022-10-14T05:44:47;56.08;;;24.77;;
38629;SDS011;24384;51.988;4.644;2022-10-14T05:47:12;54.83;;;25.20;;
38629;SDS011;24384;51.988;4.644;2022-10-14T05:49:39;49.53;;;23.88;;
38629;SDS011;24384;51.988;4.644;2022-10-14T05:52:04;50.05;;;23.88;;
38629;SDS011;24384;51.988;4.644;2022-10-14T05:54:30;44.80;;;22.05;;
38629;SDS011;24384;51.988;4.644;2022-10-14T05:56:55;55.20;;;24.83;;
38629;SDS011;24384;51.988;4.644;2022-10-14T05:59:21;56.28;;;26.33;;
38629;SDS011;24384;51.988;4.644;2022-10-14T06:01:46;48.75;;;23.35;;
38629;SDS011;24384;51.988;4.644;2022-10-14T06:04:15;57.75;;;25.83;;
38629;SDS011;24384;51.988;4.644;2022-10-14T06:06:42;54.67;;;25.30;;
38629;SDS011;24384;51.988;4.644;2022-10-14T06:09:08;49.90;;;23.45;;
38629;SDS011;24384;51.988;4.644;2022-10-14T06:11:33;47.95;;;23.55;;
38629;SDS011;24384;51.988;4.644;2022-10-14T06:13:58;48.08;;;23.25;;
38629;SDS011;24384;51.988;4.644;2022-10-14T06:16:24;48.13;;;22.98;;
38629;SDS011;24384;51.988;4.644;2022-10-14T06:18:49;43.00;;;22.88;;
38629;SDS011;24384;51.988;4.644;2022-10-14T06:21:15;48.63;;;22.98;;
38629;SDS011;24384;51.988;4.644;2022-10-14T06:23:40;47.65;;;23.15;;
38629;SDS011;24384;51.988;4.644;2022-10-14T06:26:06;47.33;;;22.65;;
38629;SDS011;24384;51.988;4.644;2022-10-14T06:28:33;47.40;;;22.70;;
38629;SDS011;24384;51.988;4.644;2022-10-14T06:30:59;45.65;;;22.58;;
38629;SDS011;24384;51.988;4.644;2022-10-14T06:33:26;43.58;;;21.60;;
38629;SDS011;24384;51.988;4.644;2022-10-14T06:35:52;41.15;;;21.15;;
38629;SDS011;24384;51.988;4.644;2022-10-14T06:38:18;41.97;;;21.55;;
38629;SDS011;24384;51.988;4.644;2022-10-14T06:40:43;39.28;;;20.27;;
38629;SDS011;24384;51.988;4.644;2022-10-14T06:43:08;42.60;;;21.05;;
38629;SDS011;24384;51.988;4.644;2022-10-14T06:45:34;36.78;;;21.17;;
38629;SDS011;24384;51.988;4.644;2022-10-14T06:47:59;40.80;;;22.00;;
38629;SDS011;24384;51.988;4.644;2022-10-14T06:50:25;37.75;;;19.38;;
38629;SDS011;24384;51.988;4.644;2022-10-14T06:52:50;36.53;;;20.10;;
38629;SDS011;24384;51.988;4.644;2022-10-14T06:55:16;40.78;;;20.67;;
38629;SDS011;24384;51.988;4.644;2022-10-14T06:57:41;36.75;;;20.48;;
38629;SDS011;24384;51.988;4.644;2022-10-14T07:00:08;43.42;;;20.95;;
38629;SDS011;24384;51.988;4.644;2022-10-14T07:02:34;45.58;;;21.90;;
38629;SDS011;24384;51.988;4.644;2022-10-14T07:05:01;46.72;;;21.30;;
38629;SDS011;24384;51.988;4.644;2022-10-14T07:07:27;44.10;;;21.50;;
38629;SDS011;24384;51.988;4.644;2022-10-14T07:09:52;43.08;;;20.90;;
38629;SDS011;24384;51.988;4.644;2022-10-14T07:12:18;41.47;;;22.17;;
38629;SDS011;24384;51.988;4.644;2022-10-14T07:14:43;46.63;;;21.95;;
38629;SDS011;24384;51.988;4.644;2022-10-14T07:17:08;48.00;;;22.42;;
38629;SDS011;24384;51.988;4.644;2022-10-14T07:19:34;45.92;;;22.02;;
38629;SDS011;24384;51.988;4.644;2022-10-14T07:21:59;46.00;;;22.42;;
38629;SDS011;24384;51.988;4.644;2022-10-14T07:24:25;46.80;;;22.55;;
38629;SDS011;24384;51.988;4.644;2022-10-14T07:26:50;44.40;;;21.27;;
38629;SDS011;24384;51.988;4.644;2022-10-14T07:29:16;47.20;;;23.23;;
38629;SDS011;24384;51.988;4.644;2022-10-14T07:31:42;48.97;;;22.52;;
38629;SDS011;24384;51.988;4.644;2022-10-14T07:34:07;44.08;;;22.35;;
38629;SDS011;24384;51.988;4.644;2022-10-14T07:36:33;46.72;;;23.13;;
38629;SDS011;24384;51.988;4.644;2022-10-14T07:38:59;48.92;;;23.45;;
38629;SDS011;24384;51.988;4.644;2022-10-14T07:41:25;51.33;;;25.58;;
38629;SDS011;24384;51.988;4.644;2022-10-14T07:43:51;53.75;;;25.77;;
38629;SDS011;24384;51.988;4.644;2022-10-14T07:46:22;62.53;;;27.13;;
38629;SDS011;24384;51.988;4.644;2022-10-14T07:48:57;55.78;;;26.75;;
38629;SDS011;24384;51.988;4.644;2022-10-14T07:51:28;68.43;;;27.42;;
38629;SDS011;24384;51.988;4.644;2022-10-14T07:53:55;64.05;;;29.55;;
38629;SDS011;24384;51.988;4.644;2022-10-14T07:56:21;72.60;;;31.25;;
38629;SDS011;24384;51.988;4.644;2022-10-14T07:58:47;63.60;;;29.23;;
38629;SDS011;24384;51.988;4.644;2022-10-14T08:01:13;67.93;;;30.30;;
38629;SDS011;24384;51.988;4.644;2022-10-14T08:03:40;78.70;;;32.35;;
38629;SDS011;24384;51.988;4.644;2022-10-14T08:06:06;79.50;;;31.65;;
38629;SDS011;24384;51.988;4.644;2022-10-14T08:08:32;82.05;;;32.70;;
38629;SDS011;24384;51.988;4.644;2022-10-14T08:13:29;81.90;;;33.87;;
38629;SDS011;24384;51.988;4.644;2022-10-14T08:15:55;82.22;;;34.35;;
38629;SDS011;24384;51.988;4.644;2022-10-14T08:18:21;88.90;;;35.13;;
38629;SDS011;24384;51.988;4.644;2022-10-14T08:20:47;81.05;;;33.85;;
38629;SDS011;24384;51.988;4.644;2022-10-14T08:23:13;87.10;;;33.85;;
38629;SDS011;24384;51.988;4.644;2022-10-14T08:25:38;79.22;;;33.17;;
38629;SDS011;24384;51.988;4.644;2022-10-14T08:28:04;76.47;;;32.40;;
38629;SDS011;24384;51.988;4.644;2022-10-14T08:30:29;81.15;;;33.75;;
38629;SDS011;24384;51.988;4.644;2022-10-14T08:32:55;74.40;;;32.38;;
38629;SDS011;24384;51.988;4.644;2022-10-14T08:35:20;79.10;;;33.80;;
38629;SDS011;24384;51.988;4.644;2022-10-14T08:37:58;73.55;;;31.92;;
38629;SDS011;24384;51.988;4.644;2022-10-14T08:45:54;69.63;;;32.55;;
38629;SDS011;24384;51.988;4.644;2022-10-14T08:48:28;70.38;;;33.40;;
38629;SDS011;24384;51.988;4.644;2022-10-14T08:50:56;63.83;;;30.50;;
38629;SDS011;24384;51.988;4.644;2022-10-14T08:53:32;63.78;;;31.92;;
38629;SDS011;24384;51.988;4.644;2022-10-14T08:56:02;63.80;;;30.38;;
38629;SDS011;24384;51.988;4.644;2022-10-14T08:58:30;67.22;;;33.20;;
38629;SDS011;24384;51.988;4.644;2022-10-14T09:00:58;62.35;;;31.73;;
38629;SDS011;24384;51.988;4.644;2022-10-14T09:03:29;73.75;;;33.15;;
38629;SDS011;24384;51.988;4.644;2022-10-14T09:06:00;57.88;;;31.38;;
38629;SDS011;24384;51.988;4.644;2022-10-14T09:08:45;58.80;;;31.58;;
38629;SDS011;24384;51.988;4.644;2022-10-14T09:11:13;54.95;;;30.58;;
38629;SDS011;24384;51.988;4.644;2022-10-14T09:13:42;56.88;;;30.25;;
38629;SDS011;24384;51.988;4.644;2022-10-14T09:16:24;54.53;;;28.23;;
38629;SDS011;24384;51.988;4.644;2022-10-14T09:19:02;52.05;;;29.25;;
38629;SDS011;24384;51.988;4.644;2022-10-14T09:21:53;52.88;;;27.48;;
38629;SDS011;24384;51.988;4.644;2022-10-14T09:24:24;54.35;;;28.08;;
38629;SDS011;24384;51.988;4.644;2022-10-14T09:32:12;49.83;;;28.23;;
38629;SDS011;24384;51.988;4.644;2022-10-14T09:34:51;49.42;;;26.63;;
38629;SDS011;24384;51.988;4.644;2022-10-14T09:37:25;45.40;;;25.88;;
38629;SDS011;24384;51.988;4.644;2022-10-14T09:39:58;47.00;;;25.75;;
38629;SDS011;24384;51.988;4.644;2022-10-14T09:42:34;39.20;;;24.35;;
38629;SDS011;24384;51.988;4.644;2022-10-14T09:45:09;43.42;;;24.25;;
38629;SDS011;24384;51.988;4.644;2022-10-14T09:50:24;35.28;;;22.90;;
38629;SDS011;24384;51.988;4.644;2022-10-14T09:52:51;28.25;;;19.95;;
38629;SDS011;24384;51.988;4.644;2022-10-14T09:55:19;30.40;;;18.92;;
38629;SDS011;24384;51.988;4.644;2022-10-14T09:57:54;26.40;;;19.70;;
38629;SDS011;24384;51.988;4.644;2022-10-14T10:00:28;25.60;;;17.42;;
38629;SDS011;24384;51.988;4.644;2022-10-14T10:02:55;26.48;;;18.73;;
38629;SDS011;24384;51.988;4.644;2022-10-14T10:10:38;22.92;;;16.15;;
38629;SDS011;24384;51.988;4.644;2022-10-14T10:13:03;20.13;;;15.25;;
38629;SDS011;24384;51.988;4.644;2022-10-14T10:15:55;17.73;;;14.90;;
38629;SDS011;24384;51.988;4.644;2022-10-14T10:18:25;18.73;;;14.73;;
38629;SDS011;24384;51.988;4.644;2022-10-14T10:21:00;16.65;;;12.30;;
38629;SDS011;24384;51.988;4.644;2022-10-14T10:23:48;18.05;;;13.88;;
38629;SDS011;24384;51.988;4.644;2022-10-14T10:26:20;15.65;;;12.48;;
38629;SDS011;24384;51.988;4.644;2022-10-14T10:28:51;16.63;;;13.63;;
38629;SDS011;24384;51.988;4.644;2022-10-14T10:36:53;17.97;;;13.90;;
38629;SDS011;24384;51.988;4.644;2022-10-14T10:39:50;16.23;;;13.63;;
38629;SDS011;24384;51.988;4.644;2022-10-14T10:42:33;17.35;;;13.70;;
38629;SDS011;24384;51.988;4.644;2022-10-14T10:54:13;15.57;;;12.48;;
38629;SDS011;24384;51.988;4.644;2022-10-14T10:57:10;15.55;;;12.32;;
38629;SDS011;24384;51.988;4.644;2022-10-14T11:05:11;14.30;;;10.30;;
38629;SDS011;24384;51.988;4.644;2022-10-14T11:07:57;15.32;;;10.95;;
38629;SDS011;24384;51.988;4.644;2022-10-14T11:19:02;17.60;;;10.88;;
38629;SDS011;24384;51.988;4.644;2022-10-14T11:24:45;15.95;;;11.13;;
38629;SDS011;24384;51.988;4.644;2022-10-14T11:27:29;15.95;;;11.48;;
38629;SDS011;24384;51.988;4.644;2022-10-14T11:30:14;16.38;;;11.27;;
38629;SDS011;24384;51.988;4.644;2022-10-14T11:36:16;15.85;;;11.57;;
38629;SDS011;24384;51.988;4.644;2022-10-14T11:44:40;17.23;;;12.40;;
38629;SDS011;24384;51.988;4.644;2022-10-14T11:47:10;19.15;;;12.70;;
38629;SDS011;24384;51.988;4.644;2022-10-14T11:49:48;18.23;;;12.38;;
38629;SDS011;24384;51.988;4.644;2022-10-14T11:52:23;22.20;;;14.02;;
38629;SDS011;24384;51.988;4.644;2022-10-14T11:54:54;16.02;;;12.05;;
38629;SDS011;24384;51.988;4.644;2022-10-14T12:00:12;14.30;;;10.05;;
38629;SDS011;24384;51.988;4.644;2022-10-14T12:11:08;16.92;;;12.32;;
38629;SDS011;24384;51.988;4.644;2022-10-14T12:13:44;18.75;;;12.98;;
38629;SDS011;24384;51.988;4.644;2022-10-14T12:16:13;17.27;;;13.32;;
38629;SDS011;24384;51.988;4.644;2022-10-14T12:18:41;20.20;;;14.10;;
38629;SDS011;24384;51.988;4.644;2022-10-14T12:21:18;20.35;;;14.32;;
38629;SDS011;24384;51.988;4.644;2022-10-14T12:24:07;21.40;;;14.75;;
38629;SDS011;24384;51.988;4.644;2022-10-14T12:26:48;19.00;;;13.98;;
38629;SDS011;24384;51.988;4.644;2022-10-14T12:29:26;18.92;;;13.52;;
38629;SDS011;24384;51.988;4.644;2022-10-14T12:34:29;18.23;;;12.90;;
38629;SDS011;24384;51.988;4.644;2022-10-14T12:36:59;19.20;;;11.40;;
38629;SDS011;24384;51.988;4.644;2022-10-14T12:39:31;14.82;;;10.68;;
38629;SDS011;24384;51.988;4.644;2022-10-14T12:42:09;16.75;;;9.70;;
38629;SDS011;24384;51.988;4.644;2022-10-14T12:44:55;14.02;;;9.63;;
38629;SDS011;24384;51.988;4.644;2022-10-14T12:47:29;15.95;;;11.27;;
38629;SDS011;24384;51.988;4.644;2022-10-14T12:52:39;16.15;;;10.93;;
38629;SDS011;24384;51.988;4.644;2022-10-14T12:55:15;15.95;;;9.38;;
38629;SDS011;24384;51.988;4.644;2022-10-14T12:57:43;19.63;;;9.85;;
38629;SDS011;24384;51.988;4.644;2022-10-14T13:02:45;8.73;;;5.85;;
38629;SDS011;24384;51.988;4.644;2022-10-14T13:08:19;11.73;;;7.00;;
38629;SDS011;24384;51.988;4.644;2022-10-14T13:11:08;8.57;;;6.05;;
38629;SDS011;24384;51.988;4.644;2022-10-14T13:21:24;13.18;;;6.20;;
38629;SDS011;24384;51.988;4.644;2022-10-14T13:23:57;8.48;;;5.68;;
38629;SDS011;24384;51.988;4.644;2022-10-14T13:29:22;11.48;;;6.10;;
38629;SDS011;24384;51.988;4.644;2022-10-14T13:35:31;12.27;;;6.90;;
38629;SDS011;24384;51.988;4.644;2022-10-14T13:38:10;10.35;;;5.68;;
38629;SDS011;24384;51.988;4.644;2022-10-14T13:40:42;8.75;;;5.82;;
38629;SDS011;24384;51.988;4.644;2022-10-14T13:43:20;9.20;;;5.47;;
38629;SDS011;24384;51.988;4.644;2022-10-14T13:48:40;10.60;;;5.28;;
38629;SDS011;24384;51.988;4.644;2022-10-14T13:53:50;9.23;;;4.60;;
38629;SDS011;24384;51.988;4.644;2022-10-14T13:56:22;6.40;;;3.83;;
38629;SDS011;24384;51.988;4.644;2022-10-14T13:58:55;6.63;;;3.50;;
38629;SDS011;24384;51.988;4.644;2022-10-14T14:01:29;5.95;;;3.30;;
38629;SDS011;24384;51.988;4.644;2022-10-14T14:03:59;6.00;;;3.28;;
38629;SDS011;24384;51.988;4.644;2022-10-14T14:06:25;5.07;;;2.72;;
38629;SDS011;24384;51.988;4.644;2022-10-14T14:08:53;9.38;;;3.20;;
38629;SDS011;24384;51.988;4.644;2022-10-14T14:11:33;6.25;;;3.00;;
38629;SDS011;24384;51.988;4.644;2022-10-14T14:16:48;6.60;;;2.53;;
38629;SDS011;24384;51.988;4.644;2022-10-14T14:19:31;5.15;;;2.55;;
38629;SDS011;24384;51.988;4.644;2022-10-14T14:24:42;6.75;;;2.35;;
38629;SDS011;24384;51.988;4.644;2022-10-14T14:27:14;5.90;;;2.42;;
38629;SDS011;24384;51.988;4.644;2022-10-14T14:29:43;4.07;;;2.47;;
38629;SDS011;24384;51.988;4.644;2022-10-14T14:32:18;10.35;;;2.70;;
38629;SDS011;24384;51.988;4.644;2022-10-14T14:34:46;6.68;;;2.75;;
38629;SDS011;24384;51.988;4.644;2022-10-14T14:37:15;9.05;;;2.88;;
38629;SDS011;24384;51.988;4.644;2022-10-14T14:39:41;5.90;;;2.50;;
38629;SDS011;24384;51.988;4.644;2022-10-14T14:42:06;6.97;;;2.50;;
38629;SDS011;24384;51.988;4.644;2022-10-14T14:44:33;8.38;;;3.38;;
38629;SDS011;24384;51.988;4.644;2022-10-14T14:46:59;6.28;;;2.90;;
38629;SDS011;24384;51.988;4.644;2022-10-14T14:49:27;5.20;;;2.70;;
38629;SDS011;24384;51.988;4.644;2022-10-14T14:51:59;6.60;;;2.40;;
38629;SDS011;24384;51.988;4.644;2022-10-14T14:54:25;4.68;;;2.45;;
38629;SDS011;24384;51.988;4.644;2022-10-14T15:02:02;7.75;;;2.30;;
38629;SDS011;24384;51.988;4.644;2022-10-14T15:04:36;5.57;;;2.22;;
38629;SDS011;24384;51.988;4.644;2022-10-14T15:07:17;5.00;;;2.20;;
38629;SDS011;24384;51.988;4.644;2022-10-14T15:09:46;6.47;;;2.30;;
38629;SDS011;24384;51.988;4.644;2022-10-14T15:12:16;6.28;;;2.22;;
38629;SDS011;24384;51.988;4.644;2022-10-14T15:17:43;6.13;;;2.20;;
38629;SDS011;24384;51.988;4.644;2022-10-14T15:22:53;4.50;;;2.10;;
38629;SDS011;24384;51.988;4.644;2022-10-14T15:25:27;6.25;;;2.53;;
38629;SDS011;24384;51.988;4.644;2022-10-14T15:27:58;7.57;;;2.35;;
38629;SDS011;24384;51.988;4.644;2022-10-14T15:30:39;4.60;;;2.63;;
38629;SDS011;24384;51.988;4.644;2022-10-14T15:33:16;9.23;;;2.50;;
38629;SDS011;24384;51.988;4.644;2022-10-14T15:35:44;7.05;;;2.20;;
38629;SDS011;24384;51.988;4.644;2022-10-14T15:38:17;7.53;;;2.83;;
38629;SDS011;24384;51.988;4.644;2022-10-14T15:40:43;4.93;;;2.20;;
38629;SDS011;24384;51.988;4.644;2022-10-14T15:43:11;3.80;;;2.10;;
38629;SDS011;24384;51.988;4.644;2022-10-14T15:45:44;4.82;;;2.33;;
38629;SDS011;24384;51.988;4.644;2022-10-14T15:48:32;6.20;;;2.50;;
38629;SDS011;24384;51.988;4.644;2022-10-14T15:50:59;5.63;;;2.78;;
38629;SDS011;24384;51.988;4.644;2022-10-14T15:53:24;5.63;;;2.90;;
38629;SDS011;24384;51.988;4.644;2022-10-14T15:55:51;5.25;;;2.65;;
38629;SDS011;24384;51.988;4.644;2022-10-14T15:58:16;5.70;;;2.60;;
38629;SDS011;24384;51.988;4.644;2022-10-14T16:00:43;9.98;;;3.10;;
38629;SDS011;24384;51.988;4.644;2022-10-14T16:03:10;8.35;;;3.15;;
38629;SDS011;24384;51.988;4.644;2022-10-14T16:05:36;7.80;;;2.65;;
38629;SDS011;24384;51.988;4.644;2022-10-14T16:08:04;5.85;;;2.80;;
38629;SDS011;24384;51.988;4.644;2022-10-14T16:13:01;5.50;;;2.78;;
38629;SDS011;24384;51.988;4.644;2022-10-14T16:15:38;6.93;;;3.20;;
38629;SDS011;24384;51.988;4.644;2022-10-14T16:18:17;6.20;;;3.55;;
38629;SDS011;24384;51.988;4.644;2022-10-14T16:20:43;8.45;;;3.47;;
38629;SDS011;24384;51.988;4.644;2022-10-14T16:23:13;5.68;;;3.00;;
38629;SDS011;24384;51.988;4.644;2022-10-14T16:25:40;4.53;;;2.92;;
38629;SDS011;24384;51.988;4.644;2022-10-14T16:28:09;9.13;;;4.00;;
38629;SDS011;24384;51.988;4.644;2022-10-14T16:30:39;7.22;;;4.18;;
38629;SDS011;24384;51.988;4.644;2022-10-14T16:33:10;8.68;;;4.60;;
38629;SDS011;24384;51.988;4.644;2022-10-14T16:35:35;9.70;;;4.38;;
38629;SDS011;24384;51.988;4.644;2022-10-14T16:38:01;8.65;;;4.32;;
38629;SDS011;24384;51.988;4.644;2022-10-14T16:40:26;9.43;;;4.30;;
38629;SDS011;24384;51.988;4.644;2022-10-14T16:43:06;9.65;;;4.95;;
38629;SDS011;24384;51.988;4.644;2022-10-14T16:45:31;10.02;;;4.82;;
38629;SDS011;24384;51.988;4.644;2022-10-14T16:47:57;9.90;;;5.60;;
38629;SDS011;24384;51.988;4.644;2022-10-14T16:50:22;9.27;;;5.75;;
38629;SDS011;24384;51.988;4.644;2022-10-14T16:52:48;10.57;;;6.10;;
38629;SDS011;24384;51.988;4.644;2022-10-14T16:55:32;10.52;;;5.85;;
38629;SDS011;24384;51.988;4.644;2022-10-14T16:57:58;11.23;;;5.78;;
38629;SDS011;24384;51.988;4.644;2022-10-14T17:00:23;9.65;;;6.43;;
38629;SDS011;24384;51.988;4.644;2022-10-14T17:02:49;10.40;;;6.20;;